createdAt,value
2018-12-14T00:00:59.932Z,304.70
2018-12-14T00:01:59.893Z,304.74
2018-12-14T00:02:59.903Z,304.36
2018-12-14T00:03:59.891Z,304.67
2018-12-14T00:04:59.918Z,304.77
2018-12-14T00:06:00.024Z,304.31
2018-12-14T00:06:59.885Z,304.69
2018-12-14T00:07:59.913Z,304.83
2018-12-14T00:08:59.850Z,304.67
2018-12-14T00:09:59.824Z,304.40
2018-12-14T00:11:00.767Z,304.55
2018-12-14T00:11:59.793Z,304.59
2018-12-14T00:12:59.833Z,304.09
2018-12-14T00:13:59.895Z,304.01
2018-12-14T00:14:59.866Z,304.85
2018-12-14T00:15:59.736Z,304.22
2018-12-14T00:16:59.754Z,304.95
2018-12-14T00:17:59.765Z,304.62
2018-12-14T00:18:59.762Z,304.51
2018-12-14T00:19:59.729Z,303.95
2018-12-14T00:20:59.696Z,304.15
2018-12-14T00:21:59.709Z,304.30
2018-12-14T00:22:59.662Z,304.44
2018-12-14T00:23:59.664Z,304.19
2018-12-14T00:24:59.648Z,304.43
2018-12-14T00:25:59.637Z,304.68
2018-12-14T00:26:59.623Z,304.81
2018-12-14T00:27:59.620Z,304.43
2018-12-14T00:28:59.635Z,304.40
2018-12-14T00:29:59.624Z,304.49
2018-12-14T00:30:59.605Z,303.88
2018-12-14T00:31:59.597Z,304.57
2018-12-14T00:32:59.562Z,304.10
2018-12-14T00:33:59.566Z,304.20
2018-12-14T00:34:59.574Z,304.32
2018-12-14T00:35:59.553Z,304.49
2018-12-14T00:36:59.568Z,304.86
2018-12-14T00:37:59.563Z,305.08
2018-12-14T00:39:00.444Z,304.55
2018-12-14T00:39:59.513Z,304.74
2018-12-14T00:40:59.502Z,304.77
2018-12-14T00:41:59.524Z,304.38
2018-12-14T00:42:59.481Z,304.48
2018-12-14T00:43:59.474Z,304.56
2018-12-14T00:44:59.483Z,304.48
2018-12-14T00:45:59.434Z,304.40
2018-12-14T00:46:59.551Z,304.65
2018-12-14T00:47:59.395Z,304.67
2018-12-14T00:48:59.431Z,303.99
2018-12-14T00:49:59.429Z,304.65
2018-12-14T00:50:59.407Z,304.73
2018-12-14T00:51:59.371Z,304.47
2018-12-14T00:52:59.456Z,304.27
2018-12-14T00:53:59.391Z,304.32
2018-12-14T00:54:59.331Z,305.03
2018-12-14T00:55:59.353Z,304.64
2018-12-14T00:56:59.307Z,304.33
2018-12-14T00:57:59.386Z,304.66
2018-12-14T00:58:59.299Z,304.26
2018-12-14T00:59:59.311Z,303.94
2018-12-14T01:00:59.283Z,303.77
2018-12-14T01:01:59.247Z,304.13
2018-12-14T01:02:59.256Z,304.15
2018-12-14T01:03:59.292Z,303.71
2018-12-14T01:04:59.219Z,303.06
2018-12-14T01:05:59.222Z,303.80
2018-12-14T01:06:59.225Z,303.56
2018-12-14T01:07:59.230Z,303.30
2018-12-14T01:08:59.197Z,303.33
2018-12-14T01:09:59.221Z,303.81
2018-12-14T01:10:59.158Z,303.96
2018-12-14T01:11:59.136Z,303.37
2018-12-14T01:12:59.142Z,303.24
2018-12-14T01:13:59.155Z,303.86
2018-12-14T01:14:59.122Z,303.26
2018-12-14T01:15:59.097Z,303.26
2018-12-14T01:16:59.116Z,303.49
2018-12-14T01:17:59.136Z,303.23
2018-12-14T01:18:59.076Z,303.31
2018-12-14T01:19:59.104Z,303.26
2018-12-14T01:20:59.083Z,303.58
2018-12-14T01:21:59.104Z,302.94
2018-12-14T01:22:59.081Z,302.88
2018-12-14T01:23:59.019Z,303.40
2018-12-14T01:24:59.028Z,303.24
2018-12-14T01:25:59.054Z,302.72
2018-12-14T01:26:59.033Z,303.61
2018-12-14T01:27:59.022Z,303.63
2018-12-14T01:28:59.012Z,303.56
2018-12-14T01:29:59.024Z,303.38
2018-12-14T01:30:58.982Z,303.43
2018-12-14T01:31:58.977Z,303.46
2018-12-14T01:32:58.976Z,303.59
2018-12-14T01:33:58.979Z,303.39
2018-12-14T01:34:58.926Z,303.53
2018-12-14T01:35:58.969Z,303.60
2018-12-14T01:36:58.941Z,303.52
2018-12-14T01:37:58.909Z,303.37
2018-12-14T01:38:58.901Z,303.41
2018-12-14T01:39:58.927Z,303.58
2018-12-14T01:40:58.906Z,303.70
2018-12-14T01:42:04.689Z,304.12
2018-12-14T01:42:59.890Z,303.51
2018-12-14T01:43:58.930Z,303.77
2018-12-14T01:44:58.837Z,303.66
2018-12-14T01:45:58.820Z,303.86
2018-12-14T01:46:58.842Z,304.08
2018-12-14T01:47:58.812Z,303.88
2018-12-14T01:48:58.792Z,303.81
2018-12-14T01:49:58.773Z,303.62
2018-12-14T01:50:58.769Z,303.94
2018-12-14T01:51:58.820Z,303.91
2018-12-14T01:52:58.760Z,303.83
2018-12-14T01:53:58.737Z,304.02
2018-12-14T01:54:58.742Z,304.27
2018-12-14T01:55:58.722Z,303.64
2018-12-14T01:56:58.727Z,304.47
2018-12-14T01:57:58.726Z,304.35
2018-12-14T01:58:58.725Z,304.27
2018-12-14T01:59:58.701Z,303.90
2018-12-14T02:00:58.653Z,304.21
2018-12-14T02:01:58.639Z,304.43
2018-12-14T02:02:58.622Z,304.70
2018-12-14T02:03:58.624Z,304.36
2018-12-14T02:04:58.597Z,304.48
2018-12-14T02:05:58.664Z,304.20
2018-12-14T02:06:58.610Z,304.23
2018-12-14T02:07:58.608Z,304.45
2018-12-14T02:08:58.580Z,304.34
2018-12-14T02:09:58.580Z,303.80
2018-12-14T02:10:58.631Z,304.23
2018-12-14T02:11:58.537Z,304.31
2018-12-14T02:12:58.530Z,304.04
2018-12-14T02:13:58.540Z,304.05
2018-12-14T02:14:58.510Z,304.42
2018-12-14T02:15:58.512Z,304.05
2018-12-14T02:16:58.486Z,303.96
2018-12-14T02:17:58.495Z,304.30
2018-12-14T02:18:58.479Z,304.14
2018-12-14T02:19:58.481Z,304.40
2018-12-14T02:20:58.447Z,304.29
2018-12-14T02:21:58.439Z,304.13
2018-12-14T02:22:58.494Z,304.45
2018-12-14T02:23:58.410Z,304.20
2018-12-14T02:24:58.413Z,304.48
2018-12-14T02:25:58.415Z,303.89
2018-12-14T02:26:58.393Z,304.45
2018-12-14T02:27:58.371Z,304.53
2018-12-14T02:28:58.437Z,304.20
2018-12-14T02:29:58.360Z,304.46
2018-12-14T02:30:58.367Z,304.33
2018-12-14T02:31:58.333Z,304.60
2018-12-14T02:32:58.330Z,304.40
2018-12-14T02:33:58.352Z,304.07
2018-12-14T02:34:58.306Z,304.32
2018-12-14T02:35:58.282Z,304.42
2018-12-14T02:36:58.287Z,304.46
2018-12-14T02:37:58.300Z,304.88
2018-12-14T02:38:58.300Z,304.67
2018-12-14T02:39:58.243Z,304.89
2018-12-14T02:40:58.251Z,304.05
2018-12-14T02:41:58.267Z,304.59
2018-12-14T02:42:58.218Z,304.70
2018-12-14T02:43:58.197Z,304.83
2018-12-14T02:44:58.237Z,304.80
2018-12-14T02:45:58.224Z,304.26
2018-12-14T02:46:58.158Z,304.40
2018-12-14T02:47:58.186Z,304.56
2018-12-14T02:48:58.144Z,304.79
2018-12-14T02:49:58.147Z,304.52
2018-12-14T02:50:58.139Z,304.02
2018-12-14T02:51:58.201Z,304.54
2018-12-14T02:52:58.117Z,304.70
2018-12-14T02:53:58.121Z,304.18
2018-12-14T02:54:58.099Z,304.20
2018-12-14T02:55:58.104Z,304.11
2018-12-14T02:56:58.128Z,304.12
2018-12-14T02:57:58.074Z,304.59
2018-12-14T02:58:58.069Z,305.04
2018-12-14T02:59:58.046Z,304.79
2018-12-14T03:00:58.076Z,304.47
2018-12-14T03:01:58.063Z,304.34
2018-12-14T03:02:58.041Z,304.01
2018-12-14T03:03:58.071Z,303.86
2018-12-14T03:04:58.037Z,303.71
2018-12-14T03:05:57.973Z,304.33
2018-12-14T03:06:57.986Z,303.91
2018-12-14T03:07:58.046Z,304.17
2018-12-14T03:08:57.947Z,303.91
2018-12-14T03:09:57.944Z,303.62
2018-12-14T03:10:57.932Z,303.48
2018-12-14T03:11:58.038Z,303.58
2018-12-14T03:12:57.933Z,303.34
2018-12-14T03:13:57.951Z,303.30
2018-12-14T03:14:57.910Z,303.89
2018-12-14T03:15:57.873Z,303.41
2018-12-14T03:16:57.898Z,303.65
2018-12-14T03:17:57.848Z,304.30
2018-12-14T03:18:57.910Z,303.79
2018-12-14T03:19:57.880Z,303.28
2018-12-14T03:20:57.843Z,303.47
2018-12-14T03:21:57.838Z,303.87
2018-12-14T03:22:57.870Z,303.64
2018-12-14T03:23:57.816Z,303.61
2018-12-14T03:24:57.809Z,303.78
2018-12-14T03:25:57.779Z,303.06
2018-12-14T03:26:58.031Z,303.25
2018-12-14T03:27:57.784Z,303.67
2018-12-14T03:28:58.119Z,303.71
2018-12-14T03:29:57.753Z,303.53
2018-12-14T03:30:57.855Z,303.44
2018-12-14T03:31:57.754Z,303.80
2018-12-14T03:32:57.707Z,303.55
2018-12-14T03:33:57.749Z,303.91
2018-12-14T03:34:57.678Z,303.65
2018-12-14T03:35:57.685Z,303.59
2018-12-14T03:36:57.669Z,303.95
2018-12-14T03:37:57.697Z,303.98
2018-12-14T03:38:57.657Z,304.11
2018-12-14T03:39:57.691Z,303.57
2018-12-14T03:40:57.645Z,303.90
2018-12-14T03:41:57.667Z,303.89
2018-12-14T03:42:57.597Z,303.60
2018-12-14T03:44:07.036Z,303.66
2018-12-14T03:45:07.081Z,304.02
2018-12-14T03:46:06.625Z,303.75
2018-12-14T03:47:06.193Z,303.84
2018-12-14T03:48:06.685Z,303.93
2018-12-14T03:48:57.531Z,304.01
2018-12-14T03:50:06.708Z,304.08
2018-12-14T03:51:06.794Z,304.05
2018-12-14T03:52:06.801Z,304.02
2018-12-14T03:53:06.364Z,303.52
2018-12-14T03:54:06.881Z,303.45
2018-12-14T03:54:57.471Z,303.99
2018-12-14T03:55:57.462Z,304.23
2018-12-14T03:56:57.452Z,304.33
2018-12-14T03:57:57.454Z,304.17
2018-12-14T03:58:57.446Z,304.28
2018-12-14T03:59:57.417Z,303.81
2018-12-14T04:00:57.405Z,304.21
2018-12-14T04:01:57.406Z,304.02
2018-12-14T04:03:06.909Z,304.46
2018-12-14T04:03:57.435Z,304.45
2018-12-14T04:04:57.382Z,304.62
2018-12-14T04:05:57.372Z,304.55
2018-12-14T04:06:57.388Z,304.73
2018-12-14T04:07:57.317Z,304.01
2018-12-14T04:09:05.987Z,304.30
2018-12-14T04:09:57.338Z,303.97
2018-12-14T04:10:57.318Z,304.12
2018-12-14T04:11:57.322Z,304.30
2018-12-14T04:12:57.300Z,304.15
2018-12-14T04:13:57.293Z,304.90
2018-12-14T04:15:05.934Z,304.51
2018-12-14T04:15:57.267Z,304.72
2018-12-14T04:16:57.262Z,304.99
2018-12-14T04:17:57.209Z,304.70
2018-12-14T04:18:57.221Z,304.81
2018-12-14T04:19:57.213Z,304.70
2018-12-14T04:20:57.224Z,304.44
2018-12-14T04:21:57.185Z,304.73
2018-12-14T04:22:57.170Z,304.65
2018-12-14T04:23:57.215Z,303.82
2018-12-14T04:24:57.213Z,304.46
2018-12-14T04:25:57.155Z,304.29
2018-12-14T04:26:57.130Z,304.00
2018-12-14T04:27:57.138Z,304.34
2018-12-14T04:28:57.153Z,304.31
2018-12-14T04:29:57.128Z,304.66
2018-12-14T04:30:57.098Z,304.63
2018-12-14T04:31:57.086Z,304.36
2018-12-14T04:32:57.068Z,304.23
2018-12-14T04:33:57.180Z,304.50
2018-12-14T04:34:57.048Z,304.62
2018-12-14T04:35:57.096Z,305.08
2018-12-14T04:36:57.026Z,305.05
2018-12-14T04:37:57.006Z,304.70
2018-12-14T04:38:57.020Z,304.87
2018-12-14T04:39:56.999Z,304.31
2018-12-14T04:40:57.003Z,304.64
2018-12-14T04:41:56.982Z,304.48
2018-12-14T04:42:56.959Z,304.19
2018-12-14T04:43:57.015Z,304.65
2018-12-14T04:45:06.492Z,304.84
2018-12-14T04:46:05.997Z,304.49
2018-12-14T04:46:56.967Z,304.48
2018-12-14T04:47:57.087Z,305.28
2018-12-14T04:48:56.921Z,304.97
2018-12-14T04:49:56.913Z,304.60
2018-12-14T04:50:56.890Z,304.36
2018-12-14T04:52:06.033Z,304.84
2018-12-14T04:53:04.087Z,304.31
2018-12-14T04:53:56.845Z,304.44
2018-12-14T04:54:56.835Z,305.08
2018-12-14T04:55:56.835Z,305.23
2018-12-14T04:56:56.830Z,304.59
2018-12-14T04:57:56.841Z,304.79
2018-12-14T04:58:56.821Z,304.86
2018-12-14T05:00:05.140Z,304.74
2018-12-14T05:00:56.793Z,304.89
2018-12-14T05:01:56.769Z,305.17
2018-12-14T05:02:56.795Z,304.56
2018-12-14T05:03:56.848Z,305.15
2018-12-14T05:04:56.803Z,305.58
2018-12-14T05:05:56.808Z,305.55
2018-12-14T05:06:56.720Z,305.34
2018-12-14T05:07:56.727Z,305.59
2018-12-14T05:08:56.821Z,305.15
2018-12-14T05:09:56.719Z,305.43
2018-12-14T05:10:56.727Z,305.09
2018-12-14T05:11:56.705Z,305.36
2018-12-14T05:12:56.744Z,305.17
2018-12-14T05:13:56.651Z,305.36
2018-12-14T05:14:56.760Z,305.39
2018-12-14T05:15:56.736Z,305.27
2018-12-14T05:16:56.665Z,305.81
2018-12-14T05:17:56.685Z,305.25
2018-12-14T05:18:56.610Z,304.99
2018-12-14T05:19:56.614Z,305.52
2018-12-14T05:20:56.621Z,304.80
2018-12-14T05:21:56.663Z,305.13
2018-12-14T05:22:56.588Z,305.28
2018-12-14T05:23:56.672Z,304.86
2018-12-14T05:24:56.640Z,304.80
2018-12-14T05:25:56.595Z,305.43
2018-12-14T05:26:56.610Z,305.29
2018-12-14T05:27:56.508Z,305.10
2018-12-14T05:28:56.516Z,305.45
2018-12-14T05:29:56.842Z,305.05
2018-12-14T05:30:56.581Z,305.66
2018-12-14T05:31:56.530Z,305.83
2018-12-14T05:33:01.292Z,305.30
2018-12-14T05:33:56.561Z,305.16
2018-12-14T05:34:56.471Z,305.26
2018-12-14T05:35:56.880Z,305.44
2018-12-14T05:36:59.089Z,305.50
2018-12-14T05:37:56.741Z,305.32
2018-12-14T05:38:58.534Z,304.87
2018-12-14T05:39:56.441Z,305.14
2018-12-14T05:40:56.389Z,305.50
2018-12-14T05:41:56.460Z,305.32
2018-12-14T05:43:02.359Z,305.08
2018-12-14T05:43:57.365Z,305.00
2018-12-14T05:44:56.348Z,305.15
2018-12-14T05:45:57.277Z,305.16
2018-12-14T05:46:56.322Z,305.89
2018-12-14T05:47:56.536Z,305.29
2018-12-14T05:48:56.448Z,305.41
2018-12-14T05:49:58.240Z,305.42
2018-12-14T05:50:56.965Z,305.24
2018-12-14T05:52:01.599Z,305.19
2018-12-14T05:52:57.044Z,305.41
2018-12-14T05:53:58.450Z,305.61
2018-12-14T05:54:56.304Z,305.10
2018-12-14T05:55:56.382Z,304.95
2018-12-14T05:56:56.232Z,305.04
2018-12-14T05:57:56.324Z,304.95
2018-12-14T05:58:56.786Z,305.46
2018-12-14T05:59:56.179Z,304.77
2018-12-14T06:00:56.185Z,305.08
2018-12-14T06:01:56.326Z,305.76
2018-12-14T06:02:56.148Z,305.14
2018-12-14T06:03:56.176Z,305.27
2018-12-14T06:04:56.129Z,305.84
2018-12-14T06:05:56.280Z,305.57
2018-12-14T06:06:56.108Z,305.06
2018-12-14T06:07:56.141Z,304.94
2018-12-14T06:08:57.154Z,305.33
2018-12-14T06:09:56.197Z,305.37
2018-12-14T06:10:56.071Z,304.95
2018-12-14T06:11:56.061Z,304.54
2018-12-14T06:12:56.539Z,305.35
2018-12-14T06:14:02.837Z,305.41
2018-12-14T06:14:56.034Z,304.94
2018-12-14T06:15:56.756Z,305.26
2018-12-14T06:16:56.104Z,305.25
2018-12-14T06:17:56.026Z,305.64
2018-12-14T06:18:55.987Z,305.73
2018-12-14T06:19:55.964Z,305.56
2018-12-14T06:20:55.954Z,305.90
2018-12-14T06:21:55.954Z,305.29
2018-12-14T06:22:55.945Z,305.32
2018-12-14T06:23:56.085Z,305.72
2018-12-14T06:24:55.952Z,305.58
2018-12-14T06:25:55.913Z,305.46
2018-12-14T06:26:55.907Z,305.46
2018-12-14T06:27:55.872Z,306.30
2018-12-14T06:28:55.923Z,305.82
2018-12-14T06:29:55.860Z,305.49
2018-12-14T06:30:55.860Z,306.06
2018-12-14T06:32:03.260Z,306.23
2018-12-14T06:32:56.336Z,305.94
2018-12-14T06:33:58.579Z,306.03
2018-12-14T06:34:58.053Z,306.05
2018-12-14T06:35:56.772Z,306.55
2018-12-14T06:36:55.790Z,306.22
2018-12-14T06:37:56.207Z,307.11
2018-12-14T06:38:56.622Z,306.20
2018-12-14T06:39:56.453Z,306.79
2018-12-14T06:40:55.829Z,305.79
2018-12-14T06:41:57.046Z,306.14
2018-12-14T06:42:56.932Z,305.71
2018-12-14T06:43:55.719Z,306.43
2018-12-14T06:44:55.732Z,306.38
2018-12-14T06:45:55.688Z,306.17
2018-12-14T06:46:55.679Z,305.36
2018-12-14T06:47:55.650Z,305.77
2018-12-14T06:48:55.661Z,305.95
2018-12-14T06:49:55.650Z,306.58
2018-12-14T06:50:55.630Z,305.83
2018-12-14T06:51:55.629Z,305.19
2018-12-14T06:52:55.610Z,305.47
2018-12-14T06:53:55.628Z,305.06
2018-12-14T06:54:55.593Z,305.69
2018-12-14T06:55:55.586Z,305.50
2018-12-14T06:56:55.582Z,305.63
2018-12-14T06:57:55.564Z,305.30
2018-12-14T06:58:55.562Z,305.71
2018-12-14T06:59:55.549Z,305.65
2018-12-14T07:00:55.606Z,305.30
2018-12-14T07:01:55.520Z,305.53
2018-12-14T07:02:55.507Z,305.67
2018-12-14T07:03:55.559Z,305.62
2018-12-14T07:04:55.540Z,305.14
2018-12-14T07:05:55.481Z,305.58
2018-12-14T07:06:55.493Z,305.65
2018-12-14T07:07:55.455Z,305.38
2018-12-14T07:08:55.453Z,305.75
2018-12-14T07:09:55.458Z,305.45
2018-12-14T07:10:55.455Z,305.93
2018-12-14T07:11:55.412Z,305.64
2018-12-14T07:12:55.416Z,305.65
2018-12-14T07:13:55.423Z,305.49
2018-12-14T07:14:55.398Z,305.49
2018-12-14T07:15:55.382Z,305.42
2018-12-14T07:16:55.377Z,305.50
2018-12-14T07:17:55.382Z,305.64
2018-12-14T07:18:55.337Z,306.25
2018-12-14T07:19:55.412Z,305.97
2018-12-14T07:20:55.332Z,305.70
2018-12-14T07:21:55.309Z,305.95
2018-12-14T07:22:55.312Z,305.85
2018-12-14T07:23:55.298Z,305.70
2018-12-14T07:24:55.293Z,305.97
2018-12-14T07:25:55.281Z,305.83
2018-12-14T07:26:55.260Z,305.48
2018-12-14T07:27:55.297Z,305.90
2018-12-14T07:28:55.267Z,306.09
2018-12-14T07:29:55.233Z,305.63
2018-12-14T07:30:55.246Z,305.68
2018-12-14T07:31:56.045Z,306.00
2018-12-14T07:32:55.218Z,306.21
2018-12-14T07:33:55.196Z,305.98
2018-12-14T07:34:55.212Z,305.90
2018-12-14T07:35:55.169Z,305.84
2018-12-14T07:36:55.179Z,305.68
2018-12-14T07:37:55.165Z,305.65
2018-12-14T07:38:55.203Z,306.24
2018-12-14T07:39:55.118Z,305.74
2018-12-14T07:40:55.116Z,305.16
2018-12-14T07:41:55.110Z,305.24
2018-12-14T07:42:55.278Z,305.23
2018-12-14T07:43:55.180Z,304.96
2018-12-14T07:44:55.114Z,305.28
2018-12-14T07:45:56.101Z,305.06
2018-12-14T07:46:55.068Z,305.56
2018-12-14T07:47:55.099Z,305.39
2018-12-14T07:48:55.093Z,305.16
2018-12-14T07:49:55.044Z,305.01
2018-12-14T07:50:55.007Z,305.30
2018-12-14T07:51:55.166Z,304.35
2018-12-14T07:52:54.996Z,305.03
2018-12-14T07:53:55.087Z,304.98
2018-12-14T07:54:54.984Z,305.00
2018-12-14T07:55:54.958Z,305.15
2018-12-14T07:56:55.705Z,305.23
2018-12-14T07:57:54.928Z,304.97
2018-12-14T07:58:54.962Z,305.38
2018-12-14T07:59:54.923Z,305.09
2018-12-14T08:00:54.930Z,305.48
2018-12-14T08:01:54.901Z,305.58
2018-12-14T08:02:54.896Z,305.27
2018-12-14T08:03:54.873Z,305.78
2018-12-14T08:04:55.273Z,304.74
2018-12-14T08:05:54.852Z,305.51
2018-12-14T08:06:54.846Z,305.22
2018-12-14T08:07:54.839Z,305.60
2018-12-14T08:08:54.868Z,305.02
2018-12-14T08:09:54.810Z,305.35
2018-12-14T08:10:54.822Z,304.96
2018-12-14T08:11:54.807Z,304.96
2018-12-14T08:12:54.803Z,305.59
2018-12-14T08:13:54.783Z,304.52
2018-12-14T08:14:54.779Z,305.38
2018-12-14T08:15:54.823Z,304.93
2018-12-14T08:16:54.769Z,305.55
2018-12-14T08:17:54.746Z,304.89
2018-12-14T08:18:54.714Z,305.02
2018-12-14T08:19:54.987Z,305.00
2018-12-14T08:20:54.740Z,305.12
2018-12-14T08:21:54.765Z,305.38
2018-12-14T08:22:54.678Z,305.11
2018-12-14T08:23:54.698Z,304.77
2018-12-14T08:24:54.699Z,304.89
2018-12-14T08:25:54.691Z,304.47
2018-12-14T08:26:54.655Z,304.95
2018-12-14T08:27:54.713Z,304.79
2018-12-14T08:28:54.711Z,305.24
2018-12-14T08:29:54.629Z,304.82
2018-12-14T08:30:54.646Z,304.79
2018-12-14T08:31:54.613Z,304.83
2018-12-14T08:32:54.595Z,304.41
2018-12-14T08:33:54.600Z,304.88
2018-12-14T08:34:54.570Z,305.21
2018-12-14T08:35:54.561Z,304.70
2018-12-14T08:36:54.526Z,304.69
2018-12-14T08:37:54.555Z,304.33
2018-12-14T08:38:54.557Z,304.33
2018-12-14T08:39:54.509Z,304.83
2018-12-14T08:40:54.554Z,304.74
2018-12-14T08:41:54.620Z,304.80
2018-12-14T08:42:54.473Z,304.84
2018-12-14T08:43:54.489Z,305.25
2018-12-14T08:44:54.495Z,304.82
2018-12-14T08:45:54.498Z,304.55
2018-12-14T08:46:54.443Z,304.50
2018-12-14T08:47:54.562Z,305.14
2018-12-14T08:48:54.428Z,304.90
2018-12-14T08:49:54.461Z,304.89
2018-12-14T08:50:54.395Z,304.57
2018-12-14T08:51:54.386Z,304.53
2018-12-14T08:52:54.499Z,304.85
2018-12-14T08:53:54.485Z,304.80
2018-12-14T08:54:54.378Z,304.77
2018-12-14T08:55:54.338Z,304.63
2018-12-14T08:56:54.375Z,304.85
2018-12-14T08:57:54.601Z,304.43
2018-12-14T08:58:54.348Z,304.27
2018-12-14T08:59:54.387Z,304.64
2018-12-14T09:00:54.270Z,305.17
2018-12-14T09:01:54.279Z,304.79
2018-12-14T09:02:54.321Z,304.53
2018-12-14T09:03:54.317Z,304.58
2018-12-14T09:04:54.232Z,304.53
2018-12-14T09:05:54.359Z,304.24
2018-12-14T09:06:54.258Z,304.63
2018-12-14T09:07:54.341Z,304.54
2018-12-14T09:08:54.219Z,304.50
2018-12-14T09:09:54.221Z,304.43
2018-12-14T09:10:54.217Z,304.65
2018-12-14T09:11:54.178Z,304.19
2018-12-14T09:12:54.145Z,304.26
2018-12-14T09:13:54.157Z,304.50
2018-12-14T09:14:54.150Z,304.62
2018-12-14T09:15:54.245Z,304.89
2018-12-14T09:17:03.654Z,304.60
2018-12-14T09:18:05.215Z,304.77
2018-12-14T09:20:34.052Z,304.38
2018-12-14T09:22:45.201Z,302.27
2018-12-14T09:24:36.874Z,301.80
2018-12-14T09:25:36.868Z,304.24
2018-12-14T09:26:36.842Z,304.18
2018-12-14T09:27:36.808Z,303.80
2018-12-14T09:28:46.236Z,303.99
2018-12-14T09:29:36.815Z,304.09
2018-12-14T09:30:42.503Z,304.65
2018-12-14T09:31:37.778Z,304.48
2018-12-14T09:32:36.801Z,304.22
2018-12-14T09:33:36.744Z,304.61
2018-12-14T09:34:46.294Z,304.81
2018-12-14T09:35:36.735Z,304.61
2018-12-14T09:36:36.792Z,305.16
2018-12-14T09:37:36.690Z,304.85
2018-12-14T09:38:36.707Z,304.31
2018-12-14T09:39:36.681Z,304.54
2018-12-14T09:40:36.764Z,304.31
2018-12-14T09:41:36.806Z,304.74
2018-12-14T09:42:45.806Z,304.49
2018-12-14T09:43:36.734Z,304.42
2018-12-14T09:44:36.654Z,304.54
2018-12-14T09:45:36.634Z,304.96
2018-12-14T09:46:37.175Z,304.80
2018-12-14T09:47:36.607Z,304.48
2018-12-14T09:48:36.613Z,304.54
2018-12-14T09:49:36.591Z,304.67
2018-12-14T09:50:36.609Z,305.15
2018-12-14T09:51:36.574Z,304.30
2018-12-14T09:52:36.560Z,304.76
2018-12-14T09:53:36.559Z,305.13
2018-12-14T09:54:36.528Z,303.81
2018-12-14T09:55:36.549Z,304.23
2018-12-14T09:56:36.515Z,304.27
2018-12-14T09:57:36.529Z,304.44
2018-12-14T09:58:36.500Z,303.86
2018-12-14T09:59:36.478Z,304.27
2018-12-14T10:00:36.515Z,304.13
2018-12-14T10:01:36.514Z,304.39
2018-12-14T10:02:36.468Z,304.33
2018-12-14T10:03:36.465Z,304.62
2018-12-14T10:04:36.479Z,304.61
2018-12-14T10:05:36.439Z,303.94
2018-12-14T10:06:36.462Z,304.22
2018-12-14T10:07:36.420Z,304.27
2018-12-14T10:08:36.402Z,303.83
2018-12-14T10:09:36.445Z,304.30
2018-12-14T10:10:36.394Z,304.37
2018-12-14T10:11:36.371Z,304.58
2018-12-14T10:12:36.428Z,304.21
2018-12-14T10:13:36.390Z,304.63
2018-12-14T10:14:36.336Z,304.44
2018-12-14T10:15:36.331Z,304.03
2018-12-14T10:16:36.315Z,304.13
2018-12-14T10:17:36.300Z,304.33
2018-12-14T10:18:36.340Z,304.73
2018-12-14T10:19:36.296Z,304.64
2018-12-14T10:20:36.281Z,304.47
2018-12-14T10:21:36.258Z,304.47
2018-12-14T10:22:41.562Z,303.91
2018-12-14T10:23:37.269Z,304.26
2018-12-14T10:24:36.245Z,303.84
2018-12-14T10:25:36.252Z,304.34
2018-12-14T10:26:36.211Z,304.18
2018-12-14T10:27:36.236Z,304.03
2018-12-14T10:28:36.224Z,303.82
2018-12-14T10:29:36.187Z,304.14
2018-12-14T10:30:36.165Z,304.19
2018-12-14T10:31:36.160Z,304.32
2018-12-14T10:32:36.169Z,303.77
2018-12-14T10:33:36.201Z,304.11
2018-12-14T10:34:36.175Z,303.60
2018-12-14T10:35:36.162Z,304.07
2018-12-14T10:36:36.121Z,303.57
2018-12-14T10:37:36.101Z,303.79
2018-12-14T10:38:36.108Z,303.55
2018-12-14T10:39:36.100Z,303.59
2018-12-14T10:40:36.114Z,303.55
2018-12-14T10:41:36.081Z,303.53
2018-12-14T10:42:36.045Z,303.97
2018-12-14T10:43:36.078Z,303.49
2018-12-14T10:44:36.050Z,303.86
2018-12-14T10:45:36.034Z,303.38
2018-12-14T10:46:36.027Z,303.92
2018-12-14T10:47:35.997Z,303.67
2018-12-14T10:48:35.976Z,303.63
2018-12-14T10:49:36.014Z,303.96
2018-12-14T10:50:39.604Z,303.33
2018-12-14T10:51:35.960Z,303.55
2018-12-14T10:52:35.964Z,303.92
2018-12-14T10:53:35.934Z,303.38
2018-12-14T10:54:35.947Z,304.00
2018-12-14T10:55:35.982Z,303.66
2018-12-14T10:56:35.918Z,303.78
2018-12-14T10:57:35.950Z,303.46
2018-12-14T10:58:35.891Z,304.05
2018-12-14T10:59:35.875Z,303.26
2018-12-14T11:00:35.871Z,304.07
2018-12-14T11:01:35.901Z,304.32
2018-12-14T11:02:35.827Z,303.92
2018-12-14T11:03:35.837Z,304.38
2018-12-14T11:04:35.815Z,304.38
2018-12-14T11:05:35.825Z,304.10
2018-12-14T11:06:35.803Z,303.53
2018-12-14T11:07:35.823Z,303.19
2018-12-14T11:08:35.766Z,303.74
2018-12-14T11:09:35.775Z,303.62
2018-12-14T11:10:35.753Z,303.69
2018-12-14T11:11:35.789Z,303.98
2018-12-14T11:12:35.753Z,303.80
2018-12-14T11:13:35.728Z,303.96
2018-12-14T11:14:35.736Z,303.50
2018-12-14T11:15:35.707Z,304.53
2018-12-14T11:16:35.741Z,303.50
2018-12-14T11:17:35.760Z,303.54
2018-12-14T11:18:35.702Z,303.61
2018-12-14T11:19:35.668Z,303.72
2018-12-14T11:20:35.691Z,303.85
2018-12-14T11:21:35.656Z,303.56
2018-12-14T11:22:35.629Z,302.97
2018-12-14T11:23:35.667Z,303.27
2018-12-14T11:24:35.623Z,303.40
2018-12-14T11:25:35.612Z,303.20
2018-12-14T11:26:35.611Z,303.61
2018-12-14T11:27:35.582Z,303.39
2018-12-14T11:28:35.598Z,303.78
2018-12-14T11:29:35.554Z,303.42
2018-12-14T11:30:35.561Z,303.32
2018-12-14T11:31:35.562Z,303.55
2018-12-14T11:32:35.531Z,303.18
2018-12-14T11:33:35.551Z,303.59
2018-12-14T11:34:35.516Z,304.02
2018-12-14T11:35:35.480Z,304.26
2018-12-14T11:36:35.467Z,303.65
2018-12-14T11:37:35.482Z,303.33
2018-12-14T11:38:35.497Z,303.23
2018-12-14T11:39:35.482Z,303.85
2018-12-14T11:40:35.508Z,303.63
2018-12-14T11:41:35.439Z,303.87
2018-12-14T11:42:35.429Z,304.17
2018-12-14T11:43:35.428Z,303.62
2018-12-14T11:44:35.401Z,303.47
2018-12-14T11:45:35.400Z,303.69
2018-12-14T11:46:35.418Z,304.28
2018-12-14T11:47:35.380Z,303.99
2018-12-14T11:48:35.365Z,303.88
2018-12-14T11:49:35.412Z,303.36
2018-12-14T11:50:35.334Z,304.09
2018-12-14T11:51:35.399Z,303.85
2018-12-14T11:52:35.306Z,303.86
2018-12-14T11:53:35.343Z,304.05
2018-12-14T11:54:35.289Z,303.85
2018-12-14T11:55:35.315Z,304.82
2018-12-14T11:56:35.294Z,304.87
2018-12-14T11:57:35.296Z,304.21
2018-12-14T11:58:35.301Z,303.64
2018-12-14T11:59:35.306Z,303.64
2018-12-14T12:00:35.246Z,303.72
2018-12-14T12:01:35.244Z,303.41
2018-12-14T12:02:35.254Z,303.85
2018-12-14T12:03:35.225Z,303.25
2018-12-14T12:04:35.217Z,303.06
2018-12-14T12:05:35.222Z,303.99
2018-12-14T12:06:35.303Z,303.36
2018-12-14T12:07:35.201Z,303.35
2018-12-14T12:08:35.167Z,303.80
2018-12-14T12:09:35.191Z,303.56
2018-12-14T12:10:35.179Z,303.89
2018-12-14T12:11:35.136Z,303.70
2018-12-14T12:12:35.177Z,304.04
2018-12-14T12:13:35.137Z,303.83
2018-12-14T12:14:35.124Z,303.78
2018-12-14T12:15:35.213Z,303.07
2018-12-14T12:16:35.190Z,303.53
2018-12-14T12:17:35.134Z,303.10
2018-12-14T12:18:35.065Z,303.71
2018-12-14T12:19:35.103Z,303.35
2018-12-14T12:20:35.045Z,303.29
2018-12-14T12:21:35.087Z,304.02
2018-12-14T12:22:35.081Z,303.39
2018-12-14T12:23:35.009Z,303.90
2018-12-14T12:24:35.058Z,303.20
2018-12-14T12:25:35.044Z,303.68
2018-12-14T12:27:46.112Z,300.72
2018-12-14T12:28:46.086Z,303.64
2018-12-14T12:29:46.107Z,303.57
2018-12-14T12:30:46.036Z,303.84
2018-12-14T12:31:46.095Z,303.77
2018-12-14T12:32:46.036Z,303.93
2018-12-14T12:33:46.018Z,304.20